sensor_id;sensor_type;location;lat;lon;timestamp;temperature;humidity
16625;DHT22;8426;48.496;9.098;2023-08-21T06:10:00;21.30;99.90
16625;DHT22;8426;48.496;9.098;2023-08-21T06:15:08;21.50;99.90
16625;DHT22;8426;48.496;9.098;2023-08-21T06:20:12;21.60;99.90
16625;DHT22;8426;48.496;9.098;2023-08-21T06:25:17;21.80;99.90
16625;DHT22;8426;48.496;9.098;2023-08-21T06:30:21;23.20;99.90
16625;DHT22;8426;48.496;9.098;2023-08-21T06:35:25;27.60;99.90
16625;DHT22;8426;48.496;9.098;2023-08-21T06:40:30;31.30;99.90
16625;DHT22;8426;48.496;9.098;2023-08-21T06:45:33;33.60;99.90
16625;DHT22;8426;48.496;9.098;2023-08-21T06:50:37;35.00;99.90
16625;DHT22;8426;48.496;9.098;2023-08-21T06:55:44;36.40;99.90
16625;DHT22;8426;48.496;9.098;2023-08-21T07:00:48;36.40;99.90
16625;DHT22;8426;48.496;9.098;2023-08-21T07:05:54;36.90;99.90
16625;DHT22;8426;48.496;9.098;2023-08-21T07:11:01;37.50;99.90
16625;DHT22;8426;48.496;9.098;2023-08-21T07:16:05;37.50;99.40
16625;DHT22;8426;48.496;9.098;2023-08-21T07:21:11;38.60;97.90
16625;DHT22;8426;48.496;9.098;2023-08-21T07:26:35;38.90;97.40
16625;DHT22;8426;48.496;9.098;2023-08-21T07:31:38;39.30;95.80
16625;DHT22;8426;48.496;9.098;2023-08-21T07:36:42;39.70;95.80
16625;DHT22;8426;48.496;9.098;2023-08-21T07:41:47;39.80;94.60
16625;DHT22;8426;48.496;9.098;2023-08-21T07:46:50;39.30;94.50
16625;DHT22;8426;48.496;9.098;2023-08-21T07:51:53;39.10;95.70
16625;DHT22;8426;48.496;9.098;2023-08-21T07:56:58;39.50;94.10
16625;DHT22;8426;48.496;9.098;2023-08-21T08:02:05;40.40;93.40
16625;DHT22;8426;48.496;9.098;2023-08-21T08:07:09;39.80;93.40
16625;DHT22;8426;48.496;9.098;2023-08-21T08:12:14;39.80;94.00
16625;DHT22;8426;48.496;9.098;2023-08-21T08:17:17;39.90;93.70
16625;DHT22;8426;48.496;9.098;2023-08-21T08:22:21;40.40;92.80
16625;DHT22;8426;48.496;9.098;2023-08-21T08:27:26;40.60;92.00
16625;DHT22;8426;48.496;9.098;2023-08-21T08:32:30;39.60;92.90
16625;DHT22;8426;48.496;9.098;2023-08-21T08:37:34;39.40;92.70
16625;DHT22;8426;48.496;9.098;2023-08-21T08:42:39;39.50;92.90
16625;DHT22;8426;48.496;9.098;2023-08-21T08:47:42;39.10;93.60
16625;DHT22;8426;48.496;9.098;2023-08-21T08:52:46;39.30;93.00
16625;DHT22;8426;48.496;9.098;2023-08-21T08:57:51;39.30;93.60
16625;DHT22;8426;48.496;9.098;2023-08-21T09:02:55;38.30;93.10
16625;DHT22;8426;48.496;9.098;2023-08-21T09:08:03;37.40;94.30
16625;DHT22;8426;48.496;9.098;2023-08-21T09:13:16;37.60;93.70
16625;DHT22;8426;48.496;9.098;2023-08-21T09:18:20;37.70;94.40
16625;DHT22;8426;48.496;9.098;2023-08-21T09:23:24;38.00;93.80
16625;DHT22;8426;48.496;9.098;2023-08-21T09:28:32;37.60;94.20
16625;DHT22;8426;48.496;9.098;2023-08-21T09:33:36;38.00;93.70
16625;DHT22;8426;48.496;9.098;2023-08-21T09:38:40;37.70;93.50
16625;DHT22;8426;48.496;9.098;2023-08-21T09:43:50;37.80;93.30
16625;DHT22;8426;48.496;9.098;2023-08-21T09:48:54;37.40;93.20
16625;DHT22;8426;48.496;9.098;2023-08-21T09:53:59;36.90;94.00
16625;DHT22;8426;48.496;9.098;2023-08-21T09:59:07;36.70;95.60
16625;DHT22;8426;48.496;9.098;2023-08-21T10:04:11;36.90;95.40
16625;DHT22;8426;48.496;9.098;2023-08-21T10:09:16;36.40;95.00
16625;DHT22;8426;48.496;9.098;2023-08-21T10:14:23;36.00;94.50
16625;DHT22;8426;48.496;9.098;2023-08-21T10:19:31;35.30;96.10
16625;DHT22;8426;48.496;9.098;2023-08-21T10:24:36;35.10;96.20
16625;DHT22;8426;48.496;9.098;2023-08-21T10:29:41;34.60;96.90
16625;DHT22;8426;48.496;9.098;2023-08-21T10:34:52;33.80;96.70
16625;DHT22;8426;48.496;9.098;2023-08-21T10:39:56;33.70;98.00
16625;DHT22;8426;48.496;9.098;2023-08-21T10:45:10;33.70;97.60
16625;DHT22;8426;48.496;9.098;2023-08-21T10:50:13;34.00;98.00
16625;DHT22;8426;48.496;9.098;2023-08-21T10:55:17;33.40;97.90
16625;DHT22;8426;48.496;9.098;2023-08-21T11:00:24;33.50;99.10
16625;DHT22;8426;48.496;9.098;2023-08-21T11:05:28;33.70;98.30
16625;DHT22;8426;48.496;9.098;2023-08-21T11:10:33;33.60;98.20
16625;DHT22;8426;48.496;9.098;2023-08-21T11:15:41;33.80;97.30
16625;DHT22;8426;48.496;9.098;2023-08-21T11:20:45;33.70;98.50
16625;DHT22;8426;48.496;9.098;2023-08-21T11:25:49;34.00;99.70
16625;DHT22;8426;48.496;9.098;2023-08-21T11:30:59;34.00;98.60
16625;DHT22;8426;48.496;9.098;2023-08-21T11:36:07;34.10;98.00
16625;DHT22;8426;48.496;9.098;2023-08-21T11:41:12;34.40;97.60
16625;DHT22;8426;48.496;9.098;2023-08-21T11:46:18;34.50;97.20
16625;DHT22;8426;48.496;9.098;2023-08-21T11:51:22;34.30;97.50
16625;DHT22;8426;48.496;9.098;2023-08-21T11:56:28;34.10;98.90
16625;DHT22;8426;48.496;9.098;2023-08-21T12:01:35;34.60;98.80
16625;DHT22;8426;48.496;9.098;2023-08-21T12:06:44;34.30;97.70
16625;DHT22;8426;48.496;9.098;2023-08-21T12:11:48;34.30;97.30
16625;DHT22;8426;48.496;9.098;2023-08-21T12:16:55;34.20;98.70
16625;DHT22;8426;48.496;9.098;2023-08-21T12:21:59;34.50;97.00
16625;DHT22;8426;48.496;9.098;2023-08-21T12:27:06;34.10;97.00
16625;DHT22;8426;48.496;9.098;2023-08-21T12:32:12;34.00;97.30
16625;DHT22;8426;48.496;9.098;2023-08-21T12:37:16;34.00;97.50
16625;DHT22;8426;48.496;9.098;2023-08-21T12:42:24;34.00;98.20
16625;DHT22;8426;48.496;9.098;2023-08-21T12:47:31;33.90;98.40
16625;DHT22;8426;48.496;9.098;2023-08-21T12:52:49;34.20;97.50
16625;DHT22;8426;48.496;9.098;2023-08-21T12:57:55;34.20;97.40
16625;DHT22;8426;48.496;9.098;2023-08-21T13:03:02;33.90;98.40
16625;DHT22;8426;48.496;9.098;2023-08-21T13:08:08;33.60;98.90
16625;DHT22;8426;48.496;9.098;2023-08-21T13:13:14;33.40;99.00
16625;DHT22;8426;48.496;9.098;2023-08-21T13:18:20;32.50;98.80
16625;DHT22;8426;48.496;9.098;2023-08-21T13:23:29;32.70;99.90
16625;DHT22;8426;48.496;9.098;2023-08-21T13:28:36;33.30;97.90
16625;DHT22;8426;48.496;9.098;2023-08-21T13:33:50;33.30;98.40
16625;DHT22;8426;48.496;9.098;2023-08-21T13:38:57;33.40;98.50
16625;DHT22;8426;48.496;9.098;2023-08-21T13:44:01;33.80;98.10
16625;DHT22;8426;48.496;9.098;2023-08-21T13:49:10;33.60;97.20
16625;DHT22;8426;48.496;9.098;2023-08-21T13:54:16;33.70;98.70
16625;DHT22;8426;48.496;9.098;2023-08-21T13:59:21;34.00;97.40
16625;DHT22;8426;48.496;9.098;2023-08-21T14:04:31;33.90;96.50
16625;DHT22;8426;48.496;9.098;2023-08-21T14:09:35;34.00;96.80
16625;DHT22;8426;48.496;9.098;2023-08-21T14:15:06;33.80;97.00
16625;DHT22;8426;48.496;9.098;2023-08-21T14:20:14;33.70;97.40
16625;DHT22;8426;48.496;9.098;2023-08-21T14:25:20;33.60;96.90
16625;DHT22;8426;48.496;9.098;2023-08-21T14:30:34;33.60;96.40
16625;DHT22;8426;48.496;9.098;2023-08-21T14:35:42;33.40;95.90
16625;DHT22;8426;48.496;9.098;2023-08-21T14:40:47;33.40;95.80
16625;DHT22;8426;48.496;9.098;2023-08-21T14:45:53;33.40;96.10
16625;DHT22;8426;48.496;9.098;2023-08-21T14:50:58;33.50;96.50
16625;DHT22;8426;48.496;9.098;2023-08-21T15:02:00;33.30;96.00
16625;DHT22;8426;48.496;9.098;2023-08-21T15:07:05;33.10;97.20
16625;DHT22;8426;48.496;9.098;2023-08-21T15:12:17;33.10;97.30
16625;DHT22;8426;48.496;9.098;2023-08-21T15:17:22;33.20;97.70
16625;DHT22;8426;48.496;9.098;2023-08-21T15:22:37;33.20;97.00
16625;DHT22;8426;48.496;9.098;2023-08-21T15:27:41;33.30;96.80
16625;DHT22;8426;48.496;9.098;2023-08-21T15:32:53;32.90;97.10
16625;DHT22;8426;48.496;9.098;2023-08-21T15:37:59;33.10;96.80
16625;DHT22;8426;48.496;9.098;2023-08-21T15:43:05;33.00;97.00
16625;DHT22;8426;48.496;9.098;2023-08-21T15:48:10;32.90;97.90
16625;DHT22;8426;48.496;9.098;2023-08-21T15:53:17;32.90;97.00
16625;DHT22;8426;48.496;9.098;2023-08-21T15:58:22;32.80;97.60
16625;DHT22;8426;48.496;9.098;2023-08-21T16:03:34;32.70;97.80
16625;DHT22;8426;48.496;9.098;2023-08-21T16:08:40;32.60;97.80
16625;DHT22;8426;48.496;9.098;2023-08-21T16:13:46;32.50;98.00
16625;DHT22;8426;48.496;9.098;2023-08-21T16:18:50;32.40;98.20
16625;DHT22;8426;48.496;9.098;2023-08-21T16:24:12;32.20;98.10
16625;DHT22;8426;48.496;9.098;2023-08-21T16:29:27;32.00;98.60
16625;DHT22;8426;48.496;9.098;2023-08-21T16:34:32;31.80;98.50
16625;DHT22;8426;48.496;9.098;2023-08-21T16:39:43;31.60;98.90
16625;DHT22;8426;48.496;9.098;2023-08-21T16:44:47;31.40;99.20
16625;DHT22;8426;48.496;9.098;2023-08-21T16:49:53;31.20;99.90
16625;DHT22;8426;48.496;9.098;2023-08-21T16:55:09;31.10;99.90
16625;DHT22;8426;48.496;9.098;2023-08-21T17:00:17;30.90;99.90
16625;DHT22;8426;48.496;9.098;2023-08-21T17:05:25;30.70;99.80
16625;DHT22;8426;48.496;9.098;2023-08-21T17:10:41;30.60;99.90
16625;DHT22;8426;48.496;9.098;2023-08-21T17:15:49;30.60;99.90
16625;DHT22;8426;48.496;9.098;2023-08-21T17:21:10;30.40;99.90
16625;DHT22;8426;48.496;9.098;2023-08-21T17:26:23;30.20;99.90
16625;DHT22;8426;48.496;9.098;2023-08-21T17:31:32;30.10;99.90
16625;DHT22;8426;48.496;9.098;2023-08-21T17:36:38;29.90;99.90
16625;DHT22;8426;48.496;9.098;2023-08-21T17:41:45;29.80;99.90
16625;DHT22;8426;48.496;9.098;2023-08-21T17:46:55;29.70;99.90
16625;DHT22;8426;48.496;9.098;2023-08-21T17:52:01;29.40;99.90
16625;DHT22;8426;48.496;9.098;2023-08-21T17:57:10;29.10;99.90
16625;DHT22;8426;48.496;9.098;2023-08-21T18:02:40;29.10;99.90
16625;DHT22;8426;48.496;9.098;2023-08-21T18:07:48;28.80;99.90
16625;DHT22;8426;48.496;9.098;2023-08-21T18:12:58;28.60;99.90
16625;DHT22;8426;48.496;9.098;2023-08-21T18:18:04;28.30;99.90
16625;DHT22;8426;48.496;9.098;2023-08-21T18:23:12;28.10;99.90
16625;DHT22;8426;48.496;9.098;2023-08-21T18:28:27;27.90;99.90
16625;DHT22;8426;48.496;9.098;2023-08-21T18:33:33;27.70;99.90
16625;DHT22;8426;48.496;9.098;2023-08-21T18:39:14;27.60;99.90
16625;DHT22;8426;48.496;9.098;2023-08-21T19:17:59;26.10;99.90
16625;DHT22;8426;48.496;9.098;2023-08-21T19:23:26;25.90;99.90
16625;DHT22;8426;48.496;9.098;2023-08-21T19:28:45;25.70;99.90
16625;DHT22;8426;48.496;9.098;2023-08-21T19:33:57;25.60;99.90
16625;DHT22;8426;48.496;9.098;2023-08-21T19:39:07;25.50;99.90
